Time;durP1;ratioP1;P1;durP2;ratioP2;P2;SDS_P1;SDS_P2;PMS_P1;PMS_P2;Temp;Humidity;BMP_temperature;BMP_pressure;BME280_temperature;BME280_humidity;BME280_pressure;Samples;Min_cycle;Max_cycle;Signal;HPM_P1;HPM_P2
2022/01/02 00:01:01;;;;;;;43.88;21.05;;;;;;;6.10;73.08;99787.38;5180748;28;20065;-67
2022/01/02 00:03:52;;;;;;;38.88;21.17;;;;;;;6.04;73.35;99776.38;5182179;28;20567;-71
2022/01/02 00:06:49;;;;;;;46.80;21.67;;;;;;;6.24;73.81;99783.88;5178547;28;20049;-70
2022/01/02 00:09:44;;;;;;;41.17;20.52;;;;;;;6.24;72.68;99793.56;5177983;28;20582;-68
2022/01/02 00:12:35;;;;;;;34.33;19.48;;;;;;;6.08;73.10;99781.34;5179967;28;20050;-68
2022/01/02 00:15:26;;;;;;;36.78;19.40;;;;;;;5.96;73.68;99739.16;5166177;28;20108;-70
2022/01/02 00:18:19;;;;;;;34.65;18.00;;;;;;;6.11;72.98;99778.53;5182742;28;20405;-68
2022/01/02 00:21:11;;;;;;;30.98;17.85;;;;;;;6.04;72.26;99777.22;5173081;28;20052;-68
2022/01/02 00:24:06;;;;;;;30.63;16.63;;;;;;;5.76;72.52;99754.38;5180596;28;20150;-69
2022/01/02 00:26:58;;;;;;;42.47;18.15;;;;;;;5.88;72.66;99779.94;5176696;28;20077;-72
2022/01/02 00:29:50;;;;;;;31.63;16.92;;;;;;;5.98;73.13;99777.59;5183202;28;20046;-70
2022/01/02 00:32:43;;;;;;;33.92;16.85;;;;;;;5.95;72.49;99756.72;5182046;28;20054;-68
2022/01/02 00:35:34;;;;;;;33.10;17.05;;;;;;;6.07;72.40;99763.88;5182093;28;20046;-67
2022/01/02 00:38:24;;;;;;;32.47;17.30;;;;;;;6.07;72.78;99774.41;5151602;28;20072;-68
2022/01/02 00:41:22;;;;;;;36.50;17.67;;;;;;;6.31;73.23;99763.25;5165464;28;20543;-70
2022/01/02 00:44:37;;;;;;;33.40;16.92;;;;;;;6.48;71.89;99760.38;5178873;28;20501;-69
2022/01/02 00:47:36;;;;;;;34.00;16.30;;;;;;;6.15;73.25;99762.53;5179368;28;20531;-69
2022/01/02 00:50:30;;;;;;;34.78;16.00;;;;;;;6.38;72.64;99759.28;5179269;28;20044;-72
2022/01/02 00:53:24;;;;;;;31.83;16.60;;;;;;;6.33;72.34;99746.41;5177724;28;20046;-70
2022/01/02 00:56:18;;;;;;;32.58;16.33;;;;;;;6.08;72.84;99752.38;5180617;28;20535;-71
2022/01/02 00:59:34;;;;;;;33.33;15.70;;;;;;;6.07;72.92;99750.72;5167606;28;20524;-68
2022/01/02 01:02:33;;;;;;;31.42;15.77;;;;;;;6.13;72.40;99712.63;5178556;28;20053;-71
2022/01/02 01:05:32;;;;;;;33.50;16.25;;;;;;;6.18;72.06;99734.22;5161102;28;20057;-70
2022/01/02 01:08:24;;;;;;;27.85;15.15;;;;;;;5.99;73.12;99737.16;5166249;28;20046;-69
2022/01/02 01:11:14;;;;;;;35.97;16.48;;;;;;;5.96;73.09;99728.63;5176588;28;20050;-68
2022/01/02 01:14:05;;;;;;;30.25;16.33;;;;;;;5.94;72.67;99736.63;5179247;28;20666;-69
2022/01/02 01:16:57;;;;;;;36.53;17.50;;;;;;;6.04;74.31;99724.56;5185865;28;20064;-69
2022/01/02 01:19:51;;;;;;;31.17;16.15;;;;;;;6.08;73.16;99720.78;5166328;28;20034;-70
2022/01/02 01:22:42;;;;;;;35.58;18.40;;;;;;;5.93;73.40;99690.19;5166390;28;20097;-69
2022/01/02 01:25:33;;;;;;;29.13;15.68;;;;;;;5.99;72.91;99705.56;5182358;28;20045;-70
2022/01/02 01:28:24;;;;;;;29.48;16.10;;;;;;;5.88;73.10;99708.88;5166080;28;20416;-69
2022/01/02 01:31:14;;;;;;;30.35;15.60;;;;;;;5.80;73.29;99712.94;5162068;28;20173;-69
2022/01/02 01:34:04;;;;;;;28.48;15.75;;;;;;;5.80;72.63;99710.31;5178865;23;20049;-69
2022/01/02 01:36:55;;;;;;;31.65;15.70;;;;;;;5.55;72.67;99680.25;5192431;28;20795;-70
2022/01/02 01:39:46;;;;;;;34.00;17.00;;;;;;;5.84;72.94;99707.38;5185027;28;20102;-69
2022/01/02 01:42:43;;;;;;;32.28;17.05;;;;;;;5.75;72.49;99693.94;5183003;28;20060;-70
2022/01/02 01:45:34;;;;;;;34.95;16.92;;;;;;;5.68;72.95;99696.13;5159339;28;20072;-69
2022/01/02 01:48:26;;;;;;;32.10;15.93;;;;;;;5.66;72.49;99703.25;5163274;28;20045;-69
2022/01/02 01:51:17;;;;;;;27.65;15.18;;;;;;;5.58;72.54;99706.34;5178487;28;20049;-69
2022/01/02 01:54:08;;;;;;;34.08;17.08;;;;;;;5.56;72.47;99703.00;5166205;28;20045;-70
2022/01/02 01:56:58;;;;;;;38.78;20.05;;;;;;;5.33;72.94;99701.78;5164961;28;20124;-70
2022/01/02 01:59:51;;;;;;;32.47;18.55;;;;;;;5.30;73.35;99696.69;5165600;28;20045;-71
2022/01/02 02:02:42;;;;;;;31.02;16.77;;;;;;;5.17;72.37;99685.25;5164872;28;20151;-70
2022/01/02 02:05:33;;;;;;;35.15;17.48;;;;;;;5.10;73.09;99682.13;5165085;28;20058;-70
2022/01/02 02:08:26;;;;;;;27.33;16.70;;;;;;;5.14;73.71;99686.25;5163838;28;20172;-70
2022/01/02 02:11:19;;;;;;;37.65;18.90;;;;;;;4.82;75.20;99690.81;5166242;28;20056;-68
2022/01/02 02:14:09;;;;;;;34.97;17.17;;;;;;;5.06;73.94;99687.66;5162890;28;20065;-71
2022/01/02 02:17:00;;;;;;;31.70;16.38;;;;;;;5.02;73.41;99687.00;5164007;28;20152;-70
2022/01/02 02:19:56;;;;;;;27.90;15.77;;;;;;;5.02;72.96;99676.47;5177580;28;20080;-70
2022/01/02 02:22:51;;;;;;;37.08;15.93;;;;;;;5.03;73.41;99672.91;5175555;28;20049;-70
2022/01/02 02:25:43;;;;;;;26.38;16.00;;;;;;;4.88;72.94;99664.16;5164287;28;20049;-69
2022/01/02 02:28:34;;;;;;;28.33;15.02;;;;;;;4.79;74.55;99666.50;5160987;28;20054;-70
2022/01/02 02:31:25;;;;;;;29.90;16.98;;;;;;;5.10;74.16;99647.97;5158959;28;20053;-69
2022/01/02 02:34:16;;;;;;;29.90;16.17;;;;;;;5.15;72.25;99645.03;5164447;28;20050;-71
2022/01/02 02:37:07;;;;;;;27.90;15.98;;;;;;;4.93;72.63;99643.72;5161614;28;20104;-68
2022/01/02 02:39:57;;;;;;;29.92;15.43;;;;;;;4.87;73.38;99640.63;5151715;28;20527;-70
2022/01/02 02:42:56;;;;;;;33.03;15.43;;;;;;;5.12;74.60;99632.09;5164108;28;20084;-71
2022/01/02 02:49:05;;;;;;;30.40;14.82;;;;;;;5.53;74.10;99628.66;5165301;28;20049;-69
2022/01/02 02:52:05;;;;;;;28.38;15.75;;;;;;;5.37;73.49;99624.38;5164001;28;20096;-69
2022/01/02 02:54:58;;;;;;;28.85;15.75;;;;;;;5.14;73.23;99606.56;5166979;28;20049;-70
2022/01/02 02:57:57;;;;;;;29.45;15.35;;;;;;;4.95;73.20;99607.66;5177530;28;20543;-69
2022/01/02 03:00:48;;;;;;;27.40;15.20;;;;;;;4.94;72.96;99594.63;5179675;28;20403;-68
2022/01/02 03:03:39;;;;;;;29.85;16.70;;;;;;;5.01;72.93;99593.31;5164811;28;20049;-70
2022/01/02 03:06:30;;;;;;;26.92;15.40;;;;;;;4.75;73.34;99594.06;5163363;28;20064;-68
2022/01/02 03:09:37;;;;;;;24.90;14.52;;;;;;;4.86;73.33;99596.88;5161611;28;20076;-69
2022/01/02 03:12:28;;;;;;;28.00;15.32;;;;;;;4.68;72.64;99596.22;5163066;28;20072;-69
2022/01/02 03:15:20;;;;;;;27.88;14.90;;;;;;;4.43;73.13;99604.69;5160652;28;20049;-70
2022/01/02 03:18:10;;;;;;;52.40;17.27;;;;;;;3.85;75.84;99598.38;5160071;28;20049;-70
2022/01/02 03:21:00;;;;;;;57.58;16.15;;;;;;;4.24;75.33;99605.78;5183585;28;20550;-69
2022/01/02 03:23:52;;;;;;;29.98;13.73;;;;;;;4.58;74.36;99614.28;5166159;28;20053;-69
2022/01/02 03:26:42;;;;;;;24.35;14.50;;;;;;;4.68;74.40;99599.66;5181859;28;20045;-69
2022/01/02 03:29:32;;;;;;;29.50;15.13;;;;;;;4.79;73.75;99598.19;5167023;28;20057;-68
2022/01/02 03:32:23;;;;;;;23.80;14.23;;;;;;;4.75;73.07;99600.16;5179137;28;20124;-70
2022/01/02 03:35:13;;;;;;;26.48;14.48;;;;;;;4.48;73.28;99594.75;5180172;28;20049;-69
2022/01/02 03:38:06;;;;;;;25.73;13.73;;;;;;;4.60;73.97;99596.69;5182459;28;20044;-69
2022/01/02 03:40:57;;;;;;;22.00;12.83;;;;;;;4.86;73.10;99592.44;5176965;28;20527;-68
2022/01/02 03:43:48;;;;;;;25.30;13.73;;;;;;;4.74;73.01;99587.13;5169556;28;20115;-70
2022/01/02 03:46:38;;;;;;;24.52;14.05;;;;;;;4.86;73.02;99595.09;5161361;28;20057;-70
2022/01/02 03:49:30;;;;;;;24.90;13.93;;;;;;;4.88;71.96;99576.63;5167710;28;20045;-70
2022/01/02 03:52:22;;;;;;;22.63;12.95;;;;;;;4.66;73.21;99577.06;5157345;28;20075;-68
2022/01/02 03:55:13;;;;;;;20.73;13.15;;;;;;;4.50;73.33;99574.50;5179339;28;20065;-69
2022/01/02 03:58:03;;;;;;;23.58;12.70;;;;;;;4.54;73.13;99578.66;5168680;28;20072;-68
2022/01/02 04:00:55;;;;;;;25.40;13.23;;;;;;;4.67;73.93;99553.34;5166849;28;20108;-68
2022/01/02 04:03:46;;;;;;;22.70;13.18;;;;;;;4.76;73.11;99564.22;5161049;28;20516;-69
2022/01/02 04:06:36;;;;;;;23.42;12.65;;;;;;;4.57;73.40;99567.97;5169326;28;20068;-70
2022/01/02 04:09:27;;;;;;;25.63;13.88;;;;;;;4.54;73.43;99548.91;5166176;28;20116;-71
2022/01/02 04:12:18;;;;;;;28.77;13.50;;;;;;;4.76;72.85;99559.78;5165321;28;20065;-69
2022/01/02 04:15:11;;;;;;;24.25;13.20;;;;;;;4.71;72.84;99557.47;5163769;28;20049;-70
2022/01/02 04:18:02;;;;;;;23.83;13.03;;;;;;;4.57;72.49;99536.44;5161550;28;20053;-70
2022/01/02 04:20:51;;;;;;;20.15;12.40;;;;;;;4.58;73.21;99566.19;5163024;28;20065;-69
2022/01/02 04:23:42;;;;;;;24.83;12.48;;;;;;;4.60;73.23;99557.28;5167133;28;20042;-68
2022/01/02 04:26:33;;;;;;;21.40;11.77;;;;;;;4.80;72.91;99549.94;5182699;28;20046;-68
2022/01/02 04:29:26;;;;;;;23.85;11.70;;;;;;;4.69;72.10;99532.22;5178153;28;20046;-69
2022/01/02 04:32:17;;;;;;;21.60;12.60;;;;;;;4.75;73.27;99538.88;5176412;28;20097;-71
2022/01/02 04:35:09;;;;;;;23.38;12.38;;;;;;;4.92;72.48;99531.66;5162743;28;20508;-69
2022/01/02 04:38:00;;;;;;;21.65;12.25;;;;;;;4.69;73.09;99527.81;5172554;28;20046;-70
2022/01/02 04:40:51;;;;;;;20.98;12.40;;;;;;;4.64;73.39;99544.81;5164916;28;20549;-69
2022/01/02 04:43:41;;;;;;;24.85;13.20;;;;;;;4.77;73.46;99542.25;5165872;28;20076;-70
2022/01/02 04:46:32;;;;;;;21.25;12.90;;;;;;;4.75;73.43;99525.75;5161753;28;20085;-70
2022/01/02 04:49:23;;;;;;;21.95;12.18;;;;;;;4.67;73.35;99506.06;5166648;28;20044;-69
2022/01/02 04:52:13;;;;;;;23.55;13.57;;;;;;;4.77;74.07;99519.47;5151943;28;20061;-68
2022/01/02 04:55:04;;;;;;;21.17;11.93;;;;;;;4.87;73.42;99517.13;5164715;28;20171;-70
2022/01/02 04:57:54;;;;;;;23.10;13.18;;;;;;;4.93;73.82;99508.84;5180114;28;20044;-70
2022/01/02 05:00:45;;;;;;;24.73;13.15;;;;;;;4.86;74.06;99500.50;5157709;28;20277;-69
2022/01/02 05:03:35;;;;;;;25.40;12.95;;;;;;;4.92;74.23;99494.84;5161797;28;20052;-70
2022/01/02 05:06:25;;;;;;;27.33;14.02;;;;;;;4.73;75.99;99517.94;5162820;28;20054;-70
2022/01/02 05:09:16;;;;;;;24.65;15.20;;;;;;;4.77;74.35;99508.09;5165016;28;20096;-70
2022/01/02 05:12:07;;;;;;;26.52;14.48;;;;;;;4.70;74.81;99490.13;5145391;28;20100;-70
2022/01/02 05:14:57;;;;;;;25.38;13.55;;;;;;;4.70;74.64;99497.13;5167228;28;20539;-69
2022/01/02 05:17:48;;;;;;;23.92;13.88;;;;;;;4.77;74.53;99495.81;5160372;28;20507;-70
2022/01/02 05:20:39;;;;;;;23.42;14.15;;;;;;;4.81;73.93;99496.47;5160909;28;20100;-70
2022/01/02 05:23:29;;;;;;;24.52;14.13;;;;;;;4.93;73.55;99488.69;5181966;28;20101;-70
2022/01/02 05:26:20;;;;;;;23.40;13.57;;;;;;;4.86;73.08;99486.50;5162920;28;20060;-70
2022/01/02 05:29:10;;;;;;;23.38;13.73;;;;;;;4.93;73.47;99488.69;5164268;28;20076;-69
2022/01/02 05:32:01;;;;;;;24.23;14.00;;;;;;;4.91;73.85;99485.28;5165930;28;20057;-69
2022/01/02 05:34:52;;;;;;;24.50;13.13;;;;;;;4.84;73.78;99488.41;5164490;28;20094;-68
2022/01/02 05:37:42;;;;;;;28.25;13.90;;;;;;;4.94;73.60;99484.25;5166189;28;20431;-70
2022/01/02 05:40:34;;;;;;;25.35;14.35;;;;;;;4.89;73.32;99470.56;5163699;28;20523;-68
2022/01/02 05:43:24;;;;;;;25.45;13.52;;;;;;;5.00;73.50;99480.38;5163761;28;20060;-68
2022/01/02 05:46:15;;;;;;;26.23;13.57;;;;;;;4.92;73.32;99458.06;5166336;28;20531;-68
2022/01/02 05:49:06;;;;;;;29.25;13.40;;;;;;;4.87;75.02;99462.78;5163055;28;20042;-69
2022/01/02 05:51:57;;;;;;;24.23;13.30;;;;;;;4.85;73.53;99440.16;5177575;28;20575;-70
2022/01/02 05:54:47;;;;;;;19.65;12.32;;;;;;;5.01;73.40;99459.28;5180958;28;20104;-69
2022/01/02 05:57:37;;;;;;;22.70;13.20;;;;;;;4.97;73.57;99454.31;5161560;28;20089;-69
2022/01/02 06:00:28;;;;;;;22.92;13.05;;;;;;;5.28;73.07;99453.19;5162915;28;20482;-70
2022/01/02 06:03:23;;;;;;;25.23;12.38;;;;;;;5.65;73.14;99447.22;5178514;28;20046;-69
2022/01/02 06:06:13;;;;;;;28.70;14.25;;;;;;;5.59;73.20;99438.88;5163915;28;20160;-68
2022/01/02 06:09:04;;;;;;;23.40;13.20;;;;;;;5.57;73.23;99439.00;5175483;28;20104;-69
2022/01/02 06:11:59;;;;;;;25.67;13.45;;;;;;;5.68;72.77;99442.69;5163577;28;20153;-68
2022/01/02 06:14:49;;;;;;;25.05;13.63;;;;;;;5.66;72.45;99403.31;5163548;28;20049;-68
2022/01/02 06:17:39;;;;;;;23.73;13.38;;;;;;;5.68;73.19;99440.06;5177687;28;20199;-69
2022/01/02 06:20:29;;;;;;;27.58;14.27;;;;;;;5.67;72.69;99441.88;5160192;28;20524;-69
2022/01/02 06:23:20;;;;;;;23.02;14.48;;;;;;;5.64;72.68;99436.81;5178361;28;20128;-69
2022/01/02 06:26:11;;;;;;;31.10;18.17;;;;;;;5.58;72.96;99438.03;5160891;28;20544;-70
2022/01/02 06:29:03;;;;;;;34.38;20.25;;;;;;;5.56;72.14;99426.81;5160819;28;20162;-70
2022/01/02 06:31:57;;;;;;;37.67;22.98;;;;;;;5.15;74.22;99430.31;5165209;28;20515;-69
2022/01/02 06:34:48;;;;;;;31.85;18.73;;;;;;;5.37;73.07;99429.78;5163995;28;20049;-68
2022/01/02 06:37:39;;;;;;;27.27;14.43;;;;;;;5.39;72.32;99432.31;5178284;28;20417;-70
2022/01/02 06:40:29;;;;;;;21.17;12.60;;;;;;;5.40;72.77;99445.38;5179452;28;20052;-70
2022/01/02 06:43:20;;;;;;;21.40;12.07;;;;;;;5.42;72.18;99443.47;5163656;28;20056;-71
2022/01/02 06:46:10;;;;;;;18.45;11.35;;;;;;;5.41;72.40;99456.72;5158809;28;20058;-70
2022/01/02 06:49:00;;;;;;;16.83;10.90;;;;;;;5.11;73.86;99456.91;5147794;28;20049;-69
2022/01/02 06:52:10;;;;;;;18.98;10.98;;;;;;;5.17;73.52;99460.00;5161896;28;20049;-68
2022/01/02 06:55:01;;;;;;;20.20;11.43;;;;;;;5.36;72.66;99448.28;5162867;28;20072;-69
2022/01/02 06:57:51;;;;;;;20.02;10.90;;;;;;;5.32;72.60;99449.44;5165809;28;20099;-70
2022/01/02 07:00:43;;;;;;;14.63;10.25;;;;;;;5.22;72.67;99428.13;5168836;28;20049;-69
2022/01/02 07:03:34;;;;;;;14.63;9.63;;;;;;;5.40;72.44;99426.13;5166932;28;20567;-70
2022/01/02 07:06:24;;;;;;;17.92;11.00;;;;;;;5.55;72.87;99419.81;5171801;28;20100;-70
2022/01/02 07:09:15;;;;;;;19.75;10.88;;;;;;;5.49;72.86;99428.13;5163908;28;20115;-69
2022/01/02 07:12:05;;;;;;;22.60;11.93;;;;;;;5.53;72.35;99418.25;5166605;28;20064;-68
2022/01/02 07:14:55;;;;;;;23.45;11.32;;;;;;;5.60;73.51;99409.84;5182847;28;20135;-67
2022/01/02 07:17:45;;;;;;;20.10;11.30;;;;;;;5.78;73.10;99414.81;5183449;28;20162;-69
2022/01/02 07:20:35;;;;;;;24.33;12.35;;;;;;;5.66;73.23;99413.84;5180970;28;20088;-68
2022/01/02 07:23:25;;;;;;;19.50;11.23;;;;;;;5.66;72.96;99403.31;5183382;28;20543;-68
2022/01/02 07:26:15;;;;;;;21.38;11.32;;;;;;;5.75;73.07;99409.78;5166412;28;20109;-68
2022/01/02 07:29:05;;;;;;;23.67;13.57;;;;;;;5.68;73.02;99405.88;5182920;28;20104;-69
2022/01/02 07:31:55;;;;;;;23.33;12.10;;;;;;;5.80;73.21;99410.31;5182590;28;20042;-70
2022/01/02 07:34:45;;;;;;;28.33;13.98;;;;;;;6.09;73.15;99406.59;5179558;28;20057;-70
2022/01/02 07:37:36;;;;;;;24.42;13.43;;;;;;;6.00;72.52;99406.38;5183039;28;20115;-70
2022/01/02 07:40:26;;;;;;;24.70;13.20;;;;;;;6.04;72.76;99408.66;5182888;28;20546;-69
2022/01/02 07:43:16;;;;;;;22.33;12.15;;;;;;;6.06;72.44;99430.47;5166442;28;20049;-69
2022/01/02 07:46:07;;;;;;;26.73;11.95;;;;;;;6.13;72.13;99432.69;5177919;28;20135;-68
2022/01/02 07:48:57;;;;;;;28.00;13.70;;;;;;;6.03;73.19;99422.78;5176379;28;20049;-70
2022/01/02 07:51:47;;;;;;;25.42;14.07;;;;;;;5.93;72.08;99415.59;5182740;28;20157;-70
2022/01/02 07:54:38;;;;;;;25.95;14.25;;;;;;;5.73;72.05;99395.88;5180419;28;20042;-70
2022/01/02 07:57:28;;;;;;;25.73;13.20;;;;;;;5.78;72.44;99406.94;5166718;28;20432;-69
2022/01/02 08:00:18;;;;;;;21.10;12.55;;;;;;;5.97;72.15;99422.38;5179131;28;20699;-70
2022/01/02 08:03:09;;;;;;;21.40;12.07;;;;;;;5.97;71.62;99419.72;5182619;28;20250;-70
2022/01/02 08:06:02;;;;;;;20.30;12.55;;;;;;;5.87;72.00;99412.41;5178693;28;20094;-70
2022/01/02 08:08:52;;;;;;;21.38;12.23;;;;;;;5.94;72.31;99425.19;5182788;28;20045;-70
2022/01/02 08:11:46;;;;;;;;;;;;;;;6.15;71.86;99421.09;5182439;28;20037;-70
2022/01/02 08:14:37;;;;;;;20.30;13.02;;;;;;;6.18;72.18;99420.03;5183703;28;19925;-70
2022/01/02 08:17:27;;;;;;;20.40;12.57;;;;;;;6.13;72.44;99424.81;5183811;28;20057;-71
2022/01/02 08:20:17;;;;;;;23.25;12.88;;;;;;;6.17;72.42;99423.63;5181794;28;20048;-70
2022/01/02 08:23:08;;;;;;;21.35;13.10;;;;;;;5.99;72.13;99416.03;5180070;28;20057;-70
2022/01/02 08:25:58;;;;;;;20.48;12.38;;;;;;;5.95;73.56;99416.34;5160880;28;20653;-72
2022/01/02 08:28:48;;;;;;;20.45;12.52;;;;;;;6.17;72.79;99424.47;5166044;28;20137;-69
2022/01/02 08:31:40;;;;;;;22.58;11.68;;;;;;;6.26;72.72;99417.75;5164297;28;20030;-69
2022/01/02 08:34:30;;;;;;;20.50;12.07;;;;;;;6.31;73.86;99426.16;5184852;28;20049;-70
2022/01/02 08:37:21;;;;;;;20.98;11.95;;;;;;;6.38;72.84;99408.13;5168919;28;20089;-71
2022/01/02 08:40:11;;;;;;;21.35;12.10;;;;;;;6.64;72.53;99404.50;5178743;28;20120;-70
2022/01/02 08:43:02;;;;;;;21.17;12.98;;;;;;;7.12;71.33;99390.53;5182359;28;20068;-70
2022/01/02 08:45:52;;;;;;;21.55;13.10;;;;;;;7.04;72.90;99399.84;5162868;28;20045;-70
2022/01/02 08:48:43;;;;;;;21.35;11.75;;;;;;;7.12;71.83;99411.63;5183619;28;20101;-69
2022/01/02 08:51:33;;;;;;;21.98;12.05;;;;;;;7.28;72.07;99404.28;5180199;28;20044;-70
2022/01/02 08:54:24;;;;;;;21.88;12.52;;;;;;;7.42;72.58;99404.13;5177836;28;20536;-69
2022/01/02 08:57:14;;;;;;;23.45;13.18;;;;;;;7.62;72.38;99402.63;5164127;28;20076;-70
2022/01/02 09:00:05;;;;;;;27.55;14.07;;;;;;;7.66;72.54;99408.50;5166890;28;20068;-73
2022/01/02 09:02:55;;;;;;;28.02;16.00;;;;;;;7.22;74.24;99415.31;5180831;28;20057;-71
2022/01/02 09:05:46;;;;;;;31.50;16.00;;;;;;;7.29;73.63;99421.81;5180276;28;20075;-69
2022/01/02 09:08:36;;;;;;;29.73;16.63;;;;;;;7.59;72.33;99417.84;5176662;28;20060;-71
2022/01/02 09:11:27;;;;;;;36.70;19.70;;;;;;;7.62;72.00;99420.28;5179193;28;20129;-69
2022/01/02 09:14:17;;;;;;;26.30;16.15;;;;;;;7.70;71.43;99428.44;5176962;28;20045;-70
2022/01/02 09:17:08;;;;;;;29.55;16.80;;;;;;;7.41;71.92;99402.41;5172989;28;20046;-71
2022/01/02 09:19:58;;;;;;;21.90;12.52;;;;;;;7.79;70.46;99404.00;5174927;28;20037;-71
2022/01/02 09:22:49;;;;;;;20.38;12.27;;;;;;;7.78;71.18;99407.56;5173785;28;20519;-71
2022/01/02 09:25:39;;;;;;;19.15;12.07;;;;;;;7.77;71.28;99387.41;5161982;28;20072;-71
2022/01/02 09:28:29;;;;;;;20.55;11.52;;;;;;;7.85;70.51;99378.94;5162035;28;20577;-70
2022/01/02 09:31:19;;;;;;;19.67;12.23;;;;;;;8.10;71.18;99394.56;5177257;28;20068;-69
2022/01/02 09:34:09;;;;;;;18.65;11.02;;;;;;;8.18;71.31;99404.56;5175217;28;20104;-70
2022/01/02 09:36:59;;;;;;;22.90;12.75;;;;;;;8.38;72.40;99414.44;5159223;28;20826;-71
2022/01/02 09:39:49;;;;;;;23.17;13.45;;;;;;;8.32;73.18;99414.06;5174173;28;20045;-71
2022/01/02 09:42:40;;;;;;;21.05;13.45;;;;;;;8.26;72.95;99436.50;5178891;28;20487;-71
2022/01/02 09:45:35;;;;;;;23.58;13.15;;;;;;;8.07;72.60;99436.22;5179812;28;20081;-71
2022/01/02 09:48:27;;;;;;;19.55;12.43;;;;;;;8.13;72.39;99431.31;5176993;28;20038;-71
2022/01/02 09:51:19;;;;;;;22.38;12.45;;;;;;;7.50;74.66;99427.28;5179391;28;20050;-72
2022/01/02 09:54:10;;;;;;;21.13;13.27;;;;;;;8.03;72.50;99413.66;5173528;28;20046;-71
2022/01/02 09:57:02;;;;;;;18.88;11.57;;;;;;;8.35;73.04;99424.38;5176184;28;20140;-70
2022/01/02 09:59:53;;;;;;;18.58;11.77;;;;;;;8.36;71.75;99418.13;5173559;28;20085;-70
2022/01/02 10:03:00;;;;;;;19.80;11.35;;;;;;;8.54;72.01;99414.06;5172982;28;20196;-71
2022/01/02 10:06:01;;;;;;;21.92;12.50;;;;;;;8.68;71.65;99413.84;5177319;28;20045;-71
2022/01/02 10:08:51;;;;;;;18.40;10.93;;;;;;;8.65;71.76;99407.94;5176993;28;20124;-73
2022/01/02 10:11:41;;;;;;;18.10;11.68;;;;;;;8.84;71.34;99412.59;5178745;28;20049;-73
2022/01/02 10:14:31;;;;;;;17.45;11.30;;;;;;;8.83;71.42;99400.34;5158168;28;20128;-74
2022/01/02 10:17:21;;;;;;;15.63;10.60;;;;;;;8.57;71.61;99400.59;5160233;28;20531;-72
2022/01/02 10:20:14;;;;;;;18.35;10.65;;;;;;;8.70;71.59;99411.88;5174947;28;20101;-74
2022/01/02 10:23:06;;;;;;;20.20;11.30;;;;;;;8.72;71.61;99387.16;5162076;28;20508;-72
2022/01/02 10:26:03;;;;;;;18.50;10.48;;;;;;;8.68;72.26;99390.03;5175508;28;20083;-72
2022/01/02 10:28:53;;;;;;;16.40;10.73;;;;;;;8.73;70.90;99381.72;5180845;28;20128;-71
2022/01/02 10:31:43;;;;;;;18.17;11.10;;;;;;;8.76;71.87;99388.59;5190053;28;20119;-70
2022/01/02 10:34:33;;;;;;;15.38;10.25;;;;;;;8.81;71.77;99373.22;5173863;28;20184;-71
2022/01/02 10:37:27;;;;;;;16.80;11.45;;;;;;;8.97;71.25;99368.34;5175861;28;20528;-70
2022/01/02 10:40:35;;;;;;;23.45;11.48;;;;;;;9.08;70.27;99356.91;5179603;28;20056;-71
2022/01/02 10:43:30;;;;;;;21.73;10.60;;;;;;;9.16;70.01;99333.28;5157877;28;20096;-71
2022/01/02 10:46:20;;;;;;;14.77;10.13;;;;;;;9.12;69.09;99326.56;5177707;28;20104;-72
2022/01/02 10:49:11;;;;;;;15.70;10.07;;;;;;;9.04;69.72;99336.94;5179514;28;20045;-71
2022/01/02 10:52:16;;;;;;;17.60;9.98;;;;;;;9.16;69.16;99315.59;5169937;28;20045;-71
2022/01/02 10:55:16;;;;;;;17.30;10.20;;;;;;;9.23;68.87;99304.53;5169905;28;20046;-73
2022/01/02 10:58:08;;;;;;;15.73;9.88;;;;;;;9.16;69.99;99314.78;5169802;28;20058;-71
2022/01/02 11:01:03;;;;;;;16.48;10.35;;;;;;;9.49;67.92;99316.41;5173977;28;20061;-70
2022/01/02 11:03:54;;;;;;;18.02;9.77;;;;;;;9.49;68.29;99331.47;5178185;28;20046;-72
2022/01/02 11:06:44;;;;;;;20.42;10.02;;;;;;;10.00;66.69;99331.50;5174648;28;20049;-70
2022/01/02 11:09:36;;;;;;;18.30;10.68;;;;;;;9.68;68.96;99339.53;5173248;28;20053;-69
2022/01/02 11:12:26;;;;;;;18.52;11.30;;;;;;;9.66;70.00;99341.47;5179146;28;20582;-70
2022/01/02 11:15:21;;;;;;;23.27;13.30;;;;;;;9.37;71.36;99339.47;5169597;28;20157;-71
2022/01/02 11:18:13;;;;;;;21.58;12.77;;;;;;;9.45;71.07;99345.91;5164519;28;21415;-70
2022/01/02 11:21:10;;;;;;;19.17;12.88;;;;;;;9.51;70.63;99340.13;5178207;28;20064;-70
2022/01/02 11:24:23;;;;;;;19.75;13.13;;;;;;;9.54;70.17;99326.63;5176045;28;20053;-69
2022/01/02 11:27:31;;;;;;;20.50;13.30;;;;;;;9.76;70.40;99328.28;5180452;28;20797;-69
2022/01/02 11:30:28;;;;;;;23.00;13.15;;;;;;;9.99;69.46;99315.72;5182827;28;20052;-69
2022/01/02 11:33:27;;;;;;;14.57;9.45;;;;;;;10.02;66.96;99297.75;5180636;28;20417;-69
2022/01/02 11:36:22;;;;;;;15.93;10.10;;;;;;;10.55;65.28;99312.63;5172715;28;20962;-69
2022/01/02 11:39:12;;;;;;;15.32;9.98;;;;;;;10.65;64.91;99310.81;5179569;28;21560;-67
2022/01/02 11:42:02;;;;;;;18.13;9.75;;;;;;;10.22;66.62;99309.25;5163926;28;20045;-68
2022/01/02 11:44:52;;;;;;;12.82;8.35;;;;;;;10.42;64.49;99280.22;5179341;28;20064;-68
2022/01/02 11:47:46;;;;;;;14.23;8.52;;;;;;;10.21;65.61;99269.66;5172158;28;20523;-68
2022/01/02 11:50:36;;;;;;;14.43;8.93;;;;;;;10.00;66.42;99269.72;5178179;28;20056;-67
2022/01/02 11:53:34;;;;;;;14.90;8.95;;;;;;;10.42;65.96;99282.84;5166415;28;20054;-67
2022/01/02 11:56:32;;;;;;;14.73;8.50;;;;;;;10.22;65.59;99266.03;5179351;28;20139;-67
2022/01/02 11:59:42;;;;;;;16.65;9.40;;;;;;;10.04;67.61;99301.13;5178286;28;20127;-68
2022/01/02 12:02:37;;;;;;;17.92;10.32;;;;;;;10.12;68.98;99308.41;5180456;28;20052;-67
2022/01/02 12:05:27;;;;;;;17.40;10.02;;;;;;;10.29;68.74;99288.41;5175941;28;20139;-68
2022/01/02 12:08:33;;;;;;;17.23;10.15;;;;;;;10.39;67.50;99268.06;5174753;28;20124;-67
2022/01/02 12:11:29;;;;;;;17.02;10.07;;;;;;;10.19;68.31;99258.34;5173034;28;20046;-68
2022/01/02 12:14:21;;;;;;;24.80;14.32;;;;;;;10.35;68.01;99245.47;5174804;28;20128;-67
2022/01/02 12:17:13;;;;;;;23.35;13.70;;;;;;;10.49;67.79;99234.44;5174093;28;20053;-67
2022/01/02 12:20:05;;;;;;;16.38;10.70;;;;;;;10.62;67.87;99249.25;5174232;28;20128;-67
2022/01/02 12:22:55;;;;;;;16.58;10.00;;;;;;;10.66;68.36;99248.88;5176363;28;20179;-67
2022/01/02 12:25:48;;;;;;;16.98;10.20;;;;;;;10.74;67.37;99246.34;5171400;28;20053;-67
2022/01/02 12:28:45;;;;;;;16.40;11.07;;;;;;;11.05;67.10;99239.06;5159437;28;20065;-67
2022/01/02 12:31:43;;;;;;;20.10;11.93;;;;;;;11.05;66.76;99228.47;5174321;28;20107;-67
2022/01/02 12:34:34;;;;;;;24.63;12.82;;;;;;;11.04;66.12;99216.19;5173877;28;20180;-69
2022/01/02 12:37:28;;;;;;;19.33;10.40;;;;;;;11.45;64.25;99215.97;5172840;28;20044;-68
2022/01/02 12:40:18;;;;;;;;;;;;;;;11.50;63.74;99224.34;5176840;28;20092;-68
2022/01/02 12:43:09;;;;;;;14.35;8.45;;;;;;;11.35;66.19;99226.59;5176611;28;19956;-67
2022/01/02 12:46:00;;;;;;;22.63;10.77;;;;;;;11.36;65.79;99227.47;5176872;28;20081;-67
2022/01/02 12:48:54;;;;;;;31.85;14.48;;;;;;;10.56;70.23;99216.19;5177255;28;20516;-69
2022/01/02 12:51:47;;;;;;;20.63;11.52;;;;;;;10.95;68.62;99202.94;5174410;28;20128;-68
2022/01/02 12:54:43;;;;;;;19.98;11.23;;;;;;;11.35;68.38;99212.50;5177016;28;20069;-68
2022/01/02 12:57:44;;;;;;;22.00;12.93;;;;;;;11.68;66.94;99204.00;5176606;28;21760;-68
2022/01/02 13:00:37;;;;;;;22.67;13.27;;;;;;;11.88;66.04;99206.63;5159809;28;20069;-68
2022/01/02 13:03:28;;;;;;;17.95;11.80;;;;;;;11.74;67.43;99194.63;5164541;28;20400;-68
2022/01/02 13:06:22;;;;;;;22.50;12.40;;;;;;;11.76;66.80;99187.34;5162854;28;20420;-68
2022/01/02 13:09:21;;;;;;;22.52;13.48;;;;;;;11.62;67.31;99175.41;5182637;28;20180;-68
2022/01/02 13:12:17;;;;;;;22.90;12.00;;;;;;;11.85;66.13;99132.50;5180718;28;20057;-68
2022/01/02 13:15:10;;;;;;;15.73;9.48;;;;;;;12.22;65.74;99159.03;5177742;28;20042;-68
2022/01/02 13:18:07;;;;;;;14.43;8.95;;;;;;;12.43;65.73;99140.13;5178622;28;20049;-72
2022/01/02 13:20:59;;;;;;;10.95;6.35;;;;;;;12.63;64.21;99146.09;5179737;28;20080;-69
2022/01/02 13:23:49;;;;;;;8.68;5.32;;;;;;;13.04;60.40;99133.94;5179394;28;20136;-69